Terminal Aerodrome Forecast
Issued by NWS

Home | Current Version | Previous Version | Text Only | Print | Product List | Glossary On
Versions: 1 2 3 4 5 6 7 8 9 10 11 12 13 14 15 16 17 18 19 20 21 22
833
FTUS42 KTBW 312346
TAFPIE
TAF
KPIE 312346Z 0100/0124 17007KT 3SM RA VCTS SCT007CB BKN030 OVC090
      TEMPO 0100/0104 17020G30KT 1SM +RA BKN007
     FM010600 14010KT 6SM -RA SCT008 BKN030 OVC090
     FM011400 16014G22KT 6SM -RA FEW010 BKN025 OVC080
     FM011800 18016G24KT 6SM -RA VCTS SCT015CB BKN035 OVC080=

USA.gov is the U.S. government's official web portal to all federal, state and local government web resources and services.